Time;durP1;ratioP1;P1;durP2;ratioP2;P2;SDS_P1;SDS_P2;PMS_P1;PMS_P2;Temp;Humidity;BMP_temperature;BMP_pressure;BME280_temperature;BME280_humidity;BME280_pressure;Samples;Min_cycle;Max_cycle;Signal;HPM_P1;HPM_P2
2022/01/27 00:01:36;;;;;;;84.60;49.25;;;;;;;;;;5059831;27;86877;-72
2022/01/27 00:06:33;;;;;;;90.72;52.35;;;;;;;;;;5060413;27;88099;-73
2022/01/27 00:09:11;;;;;;;81.50;46.67;;;;;;;;;;5061092;27;86568;-72
2022/01/27 00:11:41;;;;;;;85.68;52.42;;;;;;;;;;5060773;27;87897;-73
2022/01/27 00:14:10;;;;;;;79.53;49.35;;;;;;;;;;5060846;27;86901;-72
2022/01/27 00:16:41;;;;;;;84.75;48.70;;;;;;;;;;5060423;27;88801;-73
2022/01/27 00:19:10;;;;;;;81.50;51.22;;;;;;;;;;5060585;27;90572;-73
2022/01/27 00:21:38;;;;;;;82.05;51.25;;;;;;;;;;5059661;27;86857;-72
2022/01/27 00:24:05;;;;;;;93.95;56.80;;;;;;;;;;5060324;27;87018;-73
2022/01/27 00:26:32;;;;;;;94.93;52.85;;;;;;;;;;5058826;27;88184;-72
2022/01/27 00:28:59;;;;;;;85.55;51.40;;;;;;;;;;5058849;27;89700;-72
2022/01/27 00:31:26;;;;;;;94.05;52.33;;;;;;;;;;5060773;27;86903;-72
2022/01/27 00:33:54;;;;;;;95.32;52.17;;;;;;;;;;5061233;27;86541;-73
2022/01/27 00:36:21;;;;;;;103.40;57.83;;;;;;;;;;5059197;27;88861;-72
2022/01/27 00:38:49;;;;;;;88.03;52.53;;;;;;;;;;5059306;27;88683;-73
2022/01/27 00:41:21;;;;;;;87.57;51.22;;;;;;;;;;5059736;27;87751;-72
2022/01/27 00:43:49;;;;;;;91.03;51.38;;;;;;;;;;5060939;27;86903;-73
2022/01/27 00:46:17;;;;;;;90.47;49.92;;;;;;;;;;5058767;27;89746;-73
2022/01/27 00:48:46;;;;;;;89.55;50.38;;;;;;;;;;5060445;27;87849;-73
2022/01/27 00:51:20;;;;;;;84.65;50.80;;;;;;;;;;5059430;27;86883;-73
2022/01/27 00:54:03;;;;;;;81.00;48.88;;;;;;;;;;5058743;27;87174;-73
2022/01/27 00:59:54;;;;;;;92.53;52.67;;;;;;;;;;5059030;27;86659;-73
2022/01/27 01:04:38;;;;;;;77.38;48.30;;;;;;;;;;5031020;27;87059;-73
2022/01/27 01:07:07;;;;;;;79.53;49.30;;;;;;;;;;5063344;27;89834;-72
2022/01/27 01:15:18;;;;;;;85.82;53.85;;;;;;;;;;5063206;27;87490;-73
2022/01/27 01:34:32;;;;;;;;;;;;;;;;;;5062296;27;87873;-73
2022/01/27 01:36:48;;;;;;;85.47;46.30;;;;;;;;;;5059548;27;86871;-72
2022/01/27 01:39:15;;;;;;;75.78;44.63;;;;;;;;;;5061941;27;87684;-72
2022/01/27 01:41:42;;;;;;;73.38;44.92;;;;;;;;;;5063016;27;88395;-72
2022/01/27 01:44:10;;;;;;;92.97;46.55;;;;;;;;;;5061259;27;87546;-72
2022/01/27 01:46:37;;;;;;;70.90;42.90;;;;;;;;;;5045680;27;86922;-72
2022/01/27 01:49:05;;;;;;;68.63;38.13;;;;;;;;;;5062756;27;87794;-72
2022/01/27 01:51:34;;;;;;;67.85;40.03;;;;;;;;;;5043125;27;87500;-72
2022/01/27 01:54:02;;;;;;;64.60;37.20;;;;;;;;;;5055627;27;87500;-72
2022/01/27 01:56:29;;;;;;;66.47;37.15;;;;;;;;;;5062215;27;87300;-73
2022/01/27 01:58:56;;;;;;;59.47;34.63;;;;;;;;;;5061103;27;88427;-73
2022/01/27 02:01:23;;;;;;;66.05;37.33;;;;;;;;;;5060997;27;88326;-73
2022/01/27 02:03:51;;;;;;;66.47;38.75;;;;;;;;;;5062988;27;86825;-73
2022/01/27 02:06:42;;;;;;;68.15;37.30;;;;;;;;;;5061120;27;86904;-72
2022/01/27 02:20:13;;;;;;;60.20;35.83;;;;;;;;;;5062397;27;87820;-72
2022/01/27 02:22:40;;;;;;;66.03;35.83;;;;;;;;;;5060756;27;87522;-72
2022/01/27 02:25:08;;;;;;;60.08;38.47;;;;;;;;;;5061553;27;87783;-73
2022/01/27 02:27:35;;;;;;;67.50;39.47;;;;;;;;;;5060808;27;86891;-73
2022/01/27 02:30:03;;;;;;;68.78;38.72;;;;;;;;;;5062368;27;88382;-73
2022/01/27 02:32:30;;;;;;;67.13;37.83;;;;;;;;;;5061190;27;89161;-73
2022/01/27 02:34:57;;;;;;;70.43;37.22;;;;;;;;;;5061762;27;86893;-73
2022/01/27 02:37:24;;;;;;;70.45;41.13;;;;;;;;;;5062608;27;87336;-72
2022/01/27 02:39:51;;;;;;;65.07;39.00;;;;;;;;;;5061582;27;88591;-73
2022/01/27 02:42:21;;;;;;;71.15;39.88;;;;;;;;;;5045000;27;87713;-72
2022/01/27 02:44:54;;;;;;;62.65;34.63;;;;;;;;;;5061869;27;86855;-72
2022/01/27 02:47:22;;;;;;;63.92;38.85;;;;;;;;;;5062445;27;86921;-73
2022/01/27 02:49:49;;;;;;;70.35;39.20;;;;;;;;;;5061406;27;90148;-73
2022/01/27 02:52:16;;;;;;;60.78;36.10;;;;;;;;;;5043446;27;89666;-73
2022/01/27 02:54:43;;;;;;;69.93;38.92;;;;;;;;;;5043761;27;86920;-73
2022/01/27 02:57:26;;;;;;;67.78;37.72;;;;;;;;;;5061751;27;86825;-73
2022/01/27 02:59:53;;;;;;;65.00;37.95;;;;;;;;;;5060907;27;89290;-73
2022/01/27 03:02:20;;;;;;;65.47;39.60;;;;;;;;;;5043301;27;87514;-73
2022/01/27 03:04:47;;;;;;;78.43;43.85;;;;;;;;;;5060705;27;86856;-72
2022/01/27 03:07:14;;;;;;;77.00;42.38;;;;;;;;;;5062557;27;86041;-72
2022/01/27 03:09:42;;;;;;;87.20;47.15;;;;;;;;;;5060123;27;87787;-73
2022/01/27 03:12:11;;;;;;;80.10;44.35;;;;;;;;;;5043862;27;89119;-73
2022/01/27 03:14:40;;;;;;;81.18;43.20;;;;;;;;;;5060792;27;88061;-73
2022/01/27 03:17:08;;;;;;;80.00;44.20;;;;;;;;;;5060843;27;87007;-72
2022/01/27 03:19:36;;;;;;;92.60;46.15;;;;;;;;;;5059920;27;88113;-73
2022/01/27 03:22:04;;;;;;;93.10;48.03;;;;;;;;;;5060460;27;90235;-73
2022/01/27 03:24:31;;;;;;;84.57;46.67;;;;;;;;;;5059963;27;86846;-72
2022/01/27 03:26:59;;;;;;;79.30;44.30;;;;;;;;;;5060868;27;87009;-72
2022/01/27 03:29:26;;;;;;;86.22;46.35;;;;;;;;;;5061461;27;89346;-73
2022/01/27 03:31:54;;;;;;;80.28;47.85;;;;;;;;;;5061253;27;89632;-73
2022/01/27 03:34:21;;;;;;;83.10;44.50;;;;;;;;;;5043319;27;87395;-72
2022/01/27 03:36:49;;;;;;;78.85;42.15;;;;;;;;;;5061185;27;87146;-72
2022/01/27 03:39:19;;;;;;;78.25;39.85;;;;;;;;;;5043132;27;89821;-72
2022/01/27 03:41:50;;;;;;;88.78;48.45;;;;;;;;;;5060646;27;90171;-72
2022/01/27 03:44:18;;;;;;;90.70;43.22;;;;;;;;;;5061316;27;87110;-73
2022/01/27 03:46:45;;;;;;;79.88;41.88;;;;;;;;;;5060560;27;86840;-72
2022/01/27 03:49:12;;;;;;;80.53;39.60;;;;;;;;;;5059768;27;89370;-72
2022/01/27 03:51:39;;;;;;;72.10;35.90;;;;;;;;;;5061604;27;87638;-73
2022/01/27 03:54:06;;;;;;;84.22;38.65;;;;;;;;;;5060413;27;86897;-72
2022/01/27 03:56:33;;;;;;;82.28;41.95;;;;;;;;;;5060626;27;86056;-72
2022/01/27 03:59:01;;;;;;;74.03;38.67;;;;;;;;;;5060690;27;87584;-73
2022/01/27 04:01:29;;;;;;;82.80;40.38;;;;;;;;;;5061243;27;88556;-72
2022/01/27 04:03:59;;;;;;;87.43;45.13;;;;;;;;;;5059484;27;87782;-72
2022/01/27 04:06:33;;;;;;;84.97;44.55;;;;;;;;;;5043228;27;87138;-72
2022/01/27 04:09:03;;;;;;;80.45;43.30;;;;;;;;;;5061053;27;89611;-72
2022/01/27 04:11:30;;;;;;;91.22;49.72;;;;;;;;;;5060372;27;88236;-72
2022/01/27 04:13:58;;;;;;;93.45;49.47;;;;;;;;;;5059665;27;87166;-72
2022/01/27 04:16:25;;;;;;;93.28;47.53;;;;;;;;;;5060551;27;87057;-72
2022/01/27 04:18:52;;;;;;;88.22;51.38;;;;;;;;;;5060627;27;89091;-72
2022/01/27 04:21:20;;;;;;;86.15;46.72;;;;;;;;;;5059652;27;88827;-72
2022/01/27 04:23:47;;;;;;;82.10;50.53;;;;;;;;;;5059233;27;86885;-72
2022/01/27 04:26:17;;;;;;;84.60;47.78;;;;;;;;;;5059761;27;86991;-72
2022/01/27 04:28:45;;;;;;;82.03;45.25;;;;;;;;;;5058767;27;89164;-72
2022/01/27 04:31:12;;;;;;;76.63;46.80;;;;;;;;;;5042868;27;89455;-72
2022/01/27 04:33:40;;;;;;;79.95;47.10;;;;;;;;;;5058874;27;86808;-72
2022/01/27 04:36:18;;;;;;;87.95;48.17;;;;;;;;;;5061837;27;87072;-72
2022/01/27 04:38:56;;;;;;;82.10;47.92;;;;;;;;;;5060798;27;87517;-73
2022/01/27 04:41:48;;;;;;;85.00;46.28;;;;;;;;;;5058054;27;88955;-72
2022/01/27 04:46:53;;;;;;;80.78;43.80;;;;;;;;;;5064947;27;86243;-72
2022/01/27 04:49:20;;;;;;;78.68;43.83;;;;;;;;;;5063737;27;88442;-73
2022/01/27 04:51:47;;;;;;;71.20;42.85;;;;;;;;;;5062704;27;87564;-73
2022/01/27 04:54:21;;;;;;;79.70;46.05;;;;;;;;;;5063455;27;87848;-73
2022/01/27 04:56:48;;;;;;;82.17;43.83;;;;;;;;;;5064581;27;87543;-73
2022/01/27 04:59:20;;;;;;;82.63;46.92;;;;;;;;;;5063178;27;87823;-72
2022/01/27 05:01:52;;;;;;;69.20;41.13;;;;;;;;;;5062696;27;87945;-72
2022/01/27 05:04:22;;;;;;;78.07;46.85;;;;;;;;;;5056091;27;86888;-72
2022/01/27 05:06:50;;;;;;;74.95;42.15;;;;;;;;;;5057887;27;86921;-72
2022/01/27 05:09:17;;;;;;;87.40;43.63;;;;;;;;;;5046275;27;87866;-72
2022/01/27 05:14:21;;;;;;;77.68;44.30;;;;;;;;;;5063815;27;87083;-72
2022/01/27 05:16:48;;;;;;;78.78;39.83;;;;;;;;;;5047326;27;86875;-72
2022/01/27 05:19:16;;;;;;;76.25;43.35;;;;;;;;;;5062616;27;89734;-74
2022/01/27 05:21:42;;;;;;;69.18;40.92;;;;;;;;;;5063668;27;88256;-72
2022/01/27 05:24:10;;;;;;;86.28;43.58;;;;;;;;;;5063412;27;87246;-73
2022/01/27 05:26:38;;;;;;;77.07;42.28;;;;;;;;;;5061539;27;87018;-72
2022/01/27 05:29:08;;;;;;;78.20;41.53;;;;;;;;;;5063667;27;87635;-73
2022/01/27 05:31:36;;;;;;;77.60;45.15;;;;;;;;;;5062824;27;88965;-73
2022/01/27 05:34:04;;;;;;;84.20;45.85;;;;;;;;;;5062339;27;87157;-72
2022/01/27 05:36:33;;;;;;;79.88;49.17;;;;;;;;;;5062406;27;86152;-72
2022/01/27 05:39:02;;;;;;;89.47;47.85;;;;;;;;;;5043063;27;87887;-72
2022/01/27 05:41:30;;;;;;;100.65;48.15;;;;;;;;;;5061743;27;87653;-72
2022/01/27 05:43:56;;;;;;;97.25;48.00;;;;;;;;;;5044727;27;88492;-72
2022/01/27 05:46:23;;;;;;;86.90;43.47;;;;;;;;;;5062268;27;86998;-72
2022/01/27 05:48:51;;;;;;;87.68;49.53;;;;;;;;;;5060778;27;88720;-72
2022/01/27 05:51:18;;;;;;;91.85;46.38;;;;;;;;;;5059332;27;88070;-72
2022/01/27 05:53:45;;;;;;;83.35;47.53;;;;;;;;;;5059167;27;87191;-73
2022/01/27 05:56:12;;;;;;;87.97;46.45;;;;;;;;;;5044863;27;86955;-73
2022/01/27 05:58:39;;;;;;;91.57;43.42;;;;;;;;;;5060294;27;86902;-73
2022/01/27 06:01:06;;;;;;;93.45;44.70;;;;;;;;;;5061029;27;88798;-72
2022/01/27 06:03:33;;;;;;;82.07;41.50;;;;;;;;;;5059546;27;87023;-71
2022/01/27 06:06:00;;;;;;;86.43;44.85;;;;;;;;;;5067265;27;87232;-72
2022/01/27 06:08:29;;;;;;;85.88;45.15;;;;;;;;;;5064508;27;89860;-72
2022/01/27 06:10:57;;;;;;;78.22;44.38;;;;;;;;;;5066273;27;88794;-72
2022/01/27 06:13:24;;;;;;;71.13;38.33;;;;;;;;;;5069368;27;86896;-71
2022/01/27 06:15:51;;;;;;;76.72;40.10;;;;;;;;;;5065995;27;86978;-72
2022/01/27 06:18:19;;;;;;;77.53;40.33;;;;;;;;;;5066724;27;88430;-72
2022/01/27 06:20:46;;;;;;;81.90;40.20;;;;;;;;;;5058387;27;87414;-70
2022/01/27 06:23:14;;;;;;;80.90;35.08;;;;;;;;;;5056160;27;87318;-72
2022/01/27 06:25:41;;;;;;;67.72;34.95;;;;;;;;;;5054648;27;86455;-71
2022/01/27 06:28:08;;;;;;;67.38;35.63;;;;;;;;;;5057405;27;88104;-72
2022/01/27 06:30:35;;;;;;;56.88;32.08;;;;;;;;;;5060255;27;88828;-70
2022/01/27 06:33:07;;;;;;;49.83;28.15;;;;;;;;;;5056078;27;88070;-71
2022/01/27 06:35:34;;;;;;;54.13;27.63;;;;;;;;;;5056929;27;86863;-70
2022/01/27 06:38:01;;;;;;;55.55;30.63;;;;;;;;;;5055534;27;86839;-70
2022/01/27 06:40:29;;;;;;;62.33;28.10;;;;;;;;;;5062597;27;89628;-71
2022/01/27 06:42:56;;;;;;;58.83;31.38;;;;;;;;;;5060452;27;87575;-71
2022/01/27 06:45:23;;;;;;;66.32;32.22;;;;;;;;;;5060538;27;86995;-71
2022/01/27 06:47:50;;;;;;;58.20;30.92;;;;;;;;;;5064240;27;87296;-71
2022/01/27 06:50:17;;;;;;;57.83;29.80;;;;;;;;;;5061507;27;88140;-71
2022/01/27 06:52:44;;;;;;;62.17;30.55;;;;;;;;;;5060723;27;87249;-70
2022/01/27 06:55:13;;;;;;;69.63;34.03;;;;;;;;;;5059781;27;88587;-70
2022/01/27 06:57:40;;;;;;;69.40;33.95;;;;;;;;;;5061071;27;87790;-71
2022/01/27 07:00:08;;;;;;;67.78;32.25;;;;;;;;;;5058072;27;88468;-69
2022/01/27 07:02:35;;;;;;;67.70;35.42;;;;;;;;;;5061215;27;87532;-71
2022/01/27 07:05:04;;;;;;;59.15;31.80;;;;;;;;;;5060619;27;86853;-71
2022/01/27 07:07:31;;;;;;;64.25;32.60;;;;;;;;;;5058438;27;88445;-71
2022/01/27 07:09:58;;;;;;;63.58;31.75;;;;;;;;;;5059734;27;87615;-70
2022/01/27 07:12:25;;;;;;;59.60;32.03;;;;;;;;;;5063458;27;86987;-71
2022/01/27 07:14:54;;;;;;;58.50;30.70;;;;;;;;;;5063017;27;86220;-71
2022/01/27 07:17:22;;;;;;;57.47;28.58;;;;;;;;;;5060146;27;87885;-69
2022/01/27 07:19:49;;;;;;;63.22;31.77;;;;;;;;;;5059076;27;88214;-70
2022/01/27 07:22:17;;;;;;;55.78;30.77;;;;;;;;;;5062086;27;87832;-70
2022/01/27 07:24:44;;;;;;;63.75;32.47;;;;;;;;;;5056703;27;86984;-70
2022/01/27 07:27:11;;;;;;;61.90;33.05;;;;;;;;;;5045257;27;88801;-71
2022/01/27 07:29:39;;;;;;;70.82;34.40;;;;;;;;;;5064211;27;86833;-69
2022/01/27 07:32:07;;;;;;;64.43;33.33;;;;;;;;;;5043317;27;86921;-71
2022/01/27 07:34:39;;;;;;;61.17;31.52;;;;;;;;;;5059033;27;87382;-68
2022/01/27 07:37:07;;;;;;;66.90;31.35;;;;;;;;;;5059026;27;87757;-69
2022/01/27 07:39:34;;;;;;;53.67;30.45;;;;;;;;;;5060166;27;86691;-72
2022/01/27 07:42:01;;;;;;;58.25;28.08;;;;;;;;;;5058915;27;86937;-72
2022/01/27 07:44:33;;;;;;;55.97;31.08;;;;;;;;;;5059580;27;87633;-71
2022/01/27 07:47:01;;;;;;;57.20;29.30;;;;;;;;;;5058754;27;90737;-71
2022/01/27 07:49:29;;;;;;;63.58;32.05;;;;;;;;;;5059279;27;88813;-71
2022/01/27 07:51:56;;;;;;;64.05;33.25;;;;;;;;;;5053231;27;86868;-71
2022/01/27 07:54:23;;;;;;;51.92;29.13;;;;;;;;;;5042227;27;87213;-72
2022/01/27 07:56:50;;;;;;;57.22;32.58;;;;;;;;;;5060816;27;87825;-71
2022/01/27 07:59:17;;;;;;;55.78;31.88;;;;;;;;;;5059874;27;89180;-71
2022/01/27 08:01:45;;;;;;;60.58;30.85;;;;;;;;;;5060546;27;86885;-71
2022/01/27 08:04:13;;;;;;;67.20;34.08;;;;;;;;;;5059577;27;86211;-72
2022/01/27 08:06:40;;;;;;;60.35;33.63;;;;;;;;;;5059163;27;87860;-73
2022/01/27 08:09:07;;;;;;;73.38;37.88;;;;;;;;;;5057201;27;87985;-72
2022/01/27 08:11:34;;;;;;;62.45;34.00;;;;;;;;;;5058765;27;88523;-72
2022/01/27 08:14:01;;;;;;;65.25;36.65;;;;;;;;;;5058395;27;87576;-72
2022/01/27 08:16:28;;;;;;;74.47;37.33;;;;;;;;;;5063582;27;89176;-71
2022/01/27 08:18:55;;;;;;;75.47;34.95;;;;;;;;;;5063115;27;87989;-72
2022/01/27 08:21:22;;;;;;;67.03;33.65;;;;;;;;;;5062200;27;87396;-71
2022/01/27 08:23:51;;;;;;;80.63;40.13;;;;;;;;;;5062588;27;87037;-71
2022/01/27 08:26:29;;;;;;;77.68;39.17;;;;;;;;;;5063664;27;88525;-72
2022/01/27 08:29:10;;;;;;;62.63;33.40;;;;;;;;;;5047148;27;86787;-71
2022/01/27 08:34:34;;;;;;;59.92;30.73;;;;;;;;;;5063163;27;87340;-72
2022/01/27 08:37:07;;;;;;;59.88;30.40;;;;;;;;;;5062057;27;90272;-72
2022/01/27 08:39:34;;;;;;;67.45;34.97;;;;;;;;;;5061441;27;89630;-71
2022/01/27 08:42:02;;;;;;;69.40;31.90;;;;;;;;;;5063160;27;86848;-72
2022/01/27 08:44:29;;;;;;;65.70;31.60;;;;;;;;;;5061513;27;86996;-72
2022/01/27 08:46:56;;;;;;;74.75;35.30;;;;;;;;;;5063369;27;87772;-72
2022/01/27 08:49:26;;;;;;;64.95;34.28;;;;;;;;;;5062023;27;87515;-72
2022/01/27 08:52:13;;;;;;;62.72;33.53;;;;;;;;;;5042451;27;86846;-72
2022/01/27 08:54:40;;;;;;;77.20;35.67;;;;;;;;;;5063192;27;86471;-71
2022/01/27 08:57:07;;;;;;;69.85;33.92;;;;;;;;;;5061192;27;87868;-71
2022/01/27 08:59:34;;;;;;;64.28;35.45;;;;;;;;;;5045013;27;88084;-71
2022/01/27 09:02:01;;;;;;;60.40;35.35;;;;;;;;;;5044120;27;88067;-71
2022/01/27 09:04:28;;;;;;;69.80;37.65;;;;;;;;;;5045144;27;86873;-71
2022/01/27 09:06:55;;;;;;;65.07;33.40;;;;;;;;;;5043305;27;87844;-70
2022/01/27 09:09:23;;;;;;;69.00;35.17;;;;;;;;;;5061094;27;87543;-69
2022/01/27 09:11:51;;;;;;;62.13;33.42;;;;;;;;;;5062173;27;87324;-69
2022/01/27 09:14:18;;;;;;;75.15;35.38;;;;;;;;;;5061293;27;87522;-70
2022/01/27 09:16:46;;;;;;;63.50;34.00;;;;;;;;;;5061137;27;88172;-69
2022/01/27 09:19:14;;;;;;;57.80;35.42;;;;;;;;;;5062276;27;88880;-69
2022/01/27 09:21:46;;;;;;;73.05;43.58;;;;;;;;;;5060697;27;87566;-69
2022/01/27 09:24:17;;;;;;;77.85;41.78;;;;;;;;;;5061694;27;87011;-70
2022/01/27 09:29:19;;;;;;;76.10;42.75;;;;;;;;;;5061415;27;88521;-70
2022/01/27 09:31:50;;;;;;;65.70;35.15;;;;;;;;;;5060911;27;87306;-70
2022/01/27 09:34:18;;;;;;;65.05;36.20;;;;;;;;;;5062593;27;87180;-69
2022/01/27 09:36:49;;;;;;;72.13;37.13;;;;;;;;;;5061698;27;87783;-69
2022/01/27 09:39:18;;;;;;;69.88;35.40;;;;;;;;;;5060961;27;87665;-69
2022/01/27 09:41:45;;;;;;;72.00;37.67;;;;;;;;;;5062392;27;86923;-70
2022/01/27 09:44:13;;;;;;;70.10;36.10;;;;;;;;;;5061120;27;86248;-70
2022/01/27 09:46:43;;;;;;;86.20;51.25;;;;;;;;;;5061074;27;87761;-70
2022/01/27 09:49:19;;;;;;;66.35;35.40;;;;;;;;;;5060803;27;87503;-70
2022/01/27 09:51:47;;;;;;;69.63;37.85;;;;;;;;;;5059985;27;88575;-70
2022/01/27 09:54:15;;;;;;;79.93;37.28;;;;;;;;;;5043896;27;86889;-69
2022/01/27 09:56:43;;;;;;;76.70;39.75;;;;;;;;;;5062130;27;88117;-70
2022/01/27 09:59:15;;;;;;;83.63;45.72;;;;;;;;;;5060769;27;88418;-69
2022/01/27 10:02:18;;;;;;;65.00;37.15;;;;;;;;;;5060893;27;87212;-69
2022/01/27 10:04:58;;;;;;;77.57;37.78;;;;;;;;;;5050588;27;87441;-69
2022/01/27 10:07:32;;;;;;;73.45;38.42;;;;;;;;;;5061807;27;87930;-70
2022/01/27 10:10:09;;;;;;;85.22;44.72;;;;;;;;;;5060851;27;88426;-70
2022/01/27 10:12:40;;;;;;;84.32;43.55;;;;;;;;;;5060101;27;87345;-70
2022/01/27 10:15:14;;;;;;;80.78;40.83;;;;;;;;;;5061206;27;86897;-69
2022/01/27 10:18:05;;;;;;;77.87;37.60;;;;;;;;;;5043621;27;90393;-69
2022/01/27 10:20:32;;;;;;;76.32;39.85;;;;;;;;;;5056038;27;89426;-69
2022/01/27 10:23:20;;;;;;;74.53;38.28;;;;;;;;;;5059905;27;86847;-70
2022/01/27 10:25:52;;;;;;;70.13;36.35;;;;;;;;;;5045613;27;87377;-69
2022/01/27 10:28:35;;;;;;;66.07;37.72;;;;;;;;;;5059116;27;88103;-70
2022/01/27 10:31:20;;;;;;;74.78;38.40;;;;;;;;;;5060801;27;90101;-70
2022/01/27 10:34:10;;;;;;;69.55;35.70;;;;;;;;;;5061429;27;87236;-70
2022/01/27 10:36:43;;;;;;;62.38;36.75;;;;;;;;;;5061282;27;86216;-69
2022/01/27 10:39:10;;;;;;;61.15;36.80;;;;;;;;;;5060471;27;88776;-69
2022/01/27 10:41:39;;;;;;;60.38;33.97;;;;;;;;;;5061438;27;87559;-69
2022/01/27 10:44:17;;;;;;;65.68;37.88;;;;;;;;;;5060042;27;87828;-69
2022/01/27 10:47:17;;;;;;;74.20;41.60;;;;;;;;;;5060226;27;86980;-69
2022/01/27 10:49:51;;;;;;;68.80;35.25;;;;;;;;;;5061294;27;89031;-70
2022/01/27 10:55:12;;;;;;;72.03;38.13;;;;;;;;;;5055325;27;87294;-69
2022/01/27 10:57:39;;;;;;;65.47;34.78;;;;;;;;;;5060398;27;86934;-70
2022/01/27 11:00:11;;;;;;;66.18;35.60;;;;;;;;;;5060253;27;88962;-70
2022/01/27 11:02:54;;;;;;;53.20;30.13;;;;;;;;;;5060802;27;87933;-69
2022/01/27 11:05:23;;;;;;;51.33;29.63;;;;;;;;;;5061575;27;86984;-69
2022/01/27 11:07:50;;;;;;;48.28;28.77;;;;;;;;;;5057725;27;87328;-69
2022/01/27 11:10:18;;;;;;;46.80;27.17;;;;;;;;;;5037249;27;88928;-69
2022/01/27 11:12:46;;;;;;;44.22;26.85;;;;;;;;;;5059975;27;89965;-69
2022/01/27 11:15:16;;;;;;;45.00;26.83;;;;;;;;;;5053943;27;87697;-69
2022/01/27 11:17:45;;;;;;;45.92;26.40;;;;;;;;;;5061502;27;86888;-69
2022/01/27 11:20:48;;;;;;;49.78;27.02;;;;;;;;;;5059599;27;89387;-69
2022/01/27 11:25:55;;;;;;;40.20;25.92;;;;;;;;;;5059575;27;86945;-67
2022/01/27 11:28:23;;;;;;;47.13;29.63;;;;;;;;;;5059279;27;86346;-67
2022/01/27 11:31:14;;;;;;;42.80;26.05;;;;;;;;;;5043044;27;89414;-67
2022/01/27 11:33:44;;;;;;;46.10;27.42;;;;;;;;;;5059450;27;89010;-67
2022/01/27 11:36:19;;;;;;;57.40;31.85;;;;;;;;;;5060517;27;87870;-67
2022/01/27 11:38:46;;;;;;;49.90;27.65;;;;;;;;;;5058936;27;86982;-69
2022/01/27 11:41:39;;;;;;;48.15;27.83;;;;;;;;;;5059572;27;87865;-71
2022/01/27 11:44:29;;;;;;;50.67;26.23;;;;;;;;;;5054402;27;87814;-69
2022/01/27 11:47:13;;;;;;;50.50;26.92;;;;;;;;;;5057420;27;86929;-68
2022/01/27 11:49:56;;;;;;;44.38;25.50;;;;;;;;;;5052469;27;88261;-69
2022/01/27 11:52:56;;;;;;;46.50;25.58;;;;;;;;;;5060499;27;89691;-70
2022/01/27 11:55:23;;;;;;;43.03;26.02;;;;;;;;;;5033755;27;87534;-72
2022/01/27 11:58:01;;;;;;;45.78;25.00;;;;;;;;;;5058347;27;87457;-72
2022/01/27 12:00:29;;;;;;;51.75;25.67;;;;;;;;;;5059279;27;86980;-71
2022/01/27 12:02:57;;;;;;;44.63;25.35;;;;;;;;;;5061049;27;90021;-72
2022/01/27 12:05:25;;;;;;;37.33;24.75;;;;;;;;;;5061419;27;90024;-71
2022/01/27 12:08:14;;;;;;;45.28;27.52;;;;;;;;;;5061473;27;86930;-71
2022/01/27 12:10:42;;;;;;;43.10;26.65;;;;;;;;;;5061810;27;87204;-71
2022/01/27 12:13:34;;;;;;;41.10;25.45;;;;;;;;;;5060637;27;87863;-72
2022/01/27 12:16:57;;;;;;;49.35;28.42;;;;;;;;;;5056600;27;88171;-71
2022/01/27 12:19:03;;;;;;;45.13;25.95;;;;;;;;;;5053290;27;87060;-70
2022/01/27 12:21:31;;;;;;;45.00;26.27;;;;;;;;;;5059037;27;86251;-68
2022/01/27 12:26:49;;;;;;;45.15;27.20;;;;;;;;;;5059772;27;89024;-70
2022/01/27 12:29:27;;;;;;;44.88;27.85;;;;;;;;;;5058209;27;87825;-68
2022/01/27 12:31:56;;;;;;;48.20;29.73;;;;;;;;;;5056980;27;87336;-68
2022/01/27 12:34:23;;;;;;;39.97;24.40;;;;;;;;;;5056530;27;89518;-71
2022/01/27 12:36:54;;;;;;;47.58;27.13;;;;;;;;;;5056348;27;88516;-70
2022/01/27 12:39:23;;;;;;;41.08;25.00;;;;;;;;;;5058592;27;88146;-71
2022/01/27 12:41:51;;;;;;;39.80;25.55;;;;;;;;;;5057923;27;87255;-71
2022/01/27 12:44:18;;;;;;;42.70;25.00;;;;;;;;;;5056952;27;89502;-70
2022/01/27 12:47:10;;;;;;;43.97;24.95;;;;;;;;;;5064522;27;87644;-72
2022/01/27 12:49:46;;;;;;;46.70;27.05;;;;;;;;;;5057627;27;87361;-69
2022/01/27 12:52:20;;;;;;;37.65;24.58;;;;;;;;;;5058708;27;87005;-69
2022/01/27 12:54:51;;;;;;;45.58;25.90;;;;;;;;;;5056144;27;89313;-70
2022/01/27 12:57:40;;;;;;;44.10;26.75;;;;;;;;;;5058697;27;89898;-69
2022/01/27 13:00:10;;;;;;;41.85;25.75;;;;;;;;;;5061524;27;86950;-70
2022/01/27 13:02:38;;;;;;;39.63;25.13;;;;;;;;;;5061847;27;87605;-70
2022/01/27 13:05:08;;;;;;;43.58;24.50;;;;;;;;;;5061017;27;88373;-70
2022/01/27 13:07:40;;;;;;;51.05;26.13;;;;;;;;;;5062193;27;89300;-70
2022/01/27 13:10:12;;;;;;;47.45;25.42;;;;;;;;;;5061440;27;87118;-70
2022/01/27 13:12:49;;;;;;;40.28;25.40;;;;;;;;;;5062735;27;86195;-69
2022/01/27 13:15:20;;;;;;;43.38;24.63;;;;;;;;;;5060521;27;86925;-69
2022/01/27 13:17:57;;;;;;;44.58;25.70;;;;;;;;;;5059988;27;88549;-69
2022/01/27 13:20:31;;;;;;;51.03;29.02;;;;;;;;;;5060043;27;88184;-69
2022/01/27 13:23:18;;;;;;;49.60;29.67;;;;;;;;;;5042306;27;87270;-69
2022/01/27 13:25:47;;;;;;;48.58;28.95;;;;;;;;;;5058707;27;88540;-70
2022/01/27 13:28:20;;;;;;;57.28;33.10;;;;;;;;;;5060113;27;88055;-69
2022/01/27 13:30:50;;;;;;;51.58;29.35;;;;;;;;;;5060103;27;87360;-69
2022/01/27 13:33:19;;;;;;;60.08;34.90;;;;;;;;;;5044515;27;86978;-69
2022/01/27 13:35:47;;;;;;;62.97;36.25;;;;;;;;;;5060272;27;87757;-69
2022/01/27 13:38:23;;;;;;;64.32;39.22;;;;;;;;;;5060871;27;88153;-69
2022/01/27 13:41:19;;;;;;;62.83;37.70;;;;;;;;;;5044449;27;86896;-69
2022/01/27 13:43:47;;;;;;;60.63;39.10;;;;;;;;;;5061826;27;87053;-69
2022/01/27 13:46:44;;;;;;;65.45;42.50;;;;;;;;;;5058285;27;89223;-69
2022/01/27 13:49:26;;;;;;;57.58;35.70;;;;;;;;;;5057592;27;90362;-69
2022/01/27 13:51:53;;;;;;;62.90;38.90;;;;;;;;;;5058434;27;87320;-69
2022/01/27 13:54:30;;;;;;;65.03;39.30;;;;;;;;;;5060449;27;87015;-69
2022/01/27 13:57:25;;;;;;;73.00;42.35;;;;;;;;;;5059005;27;87650;-69
2022/01/27 13:59:58;;;;;;;;;;;;;;;;;;5057118;27;88834;-69
2022/01/27 14:02:26;;;;;;;64.63;37.28;;;;;;;;;;5060527;27;86895;-68
2022/01/27 14:05:01;;;;;;;67.68;40.22;;;;;;;;;;5061316;27;86206;-69
2022/01/27 14:07:32;;;;;;;78.45;44.00;;;;;;;;;;5043637;27;89418;-69
2022/01/27 14:10:25;;;;;;;68.57;37.72;;;;;;;;;;5059868;27;88381;-69
2022/01/27 14:15:35;;;;;;;58.25;34.47;;;;;;;;;;5054332;27;87024;-70
2022/01/27 14:18:07;;;;;;;71.63;42.10;;;;;;;;;;5059135;27;88251;-69
2022/01/27 14:20:34;;;;;;;67.43;37.20;;;;;;;;;;5059247;27;87957;-68
2022/01/27 14:23:15;;;;;;;61.88;37.92;;;;;;;;;;5061071;27;86935;-69
2022/01/27 14:25:57;;;;;;;61.03;37.65;;;;;;;;;;5058619;27;87045;-69
2022/01/27 14:28:24;;;;;;;63.05;37.72;;;;;;;;;;5052474;27;89284;-69
2022/01/27 14:30:51;;;;;;;72.40;40.25;;;;;;;;;;5058784;27;87376;-70
2022/01/27 14:33:18;;;;;;;63.65;38.17;;;;;;;;;;5058982;27;86876;-69
2022/01/27 14:35:45;;;;;;;73.00;42.72;;;;;;;;;;5059200;27;86981;-69
2022/01/27 14:38:12;;;;;;;65.13;41.20;;;;;;;;;;5057879;27;90574;-69
2022/01/27 14:40:39;;;;;;;66.18;41.45;;;;;;;;;;5056567;27;90301;-70
2022/01/27 14:43:07;;;;;;;69.60;39.83;;;;;;;;;;5060568;27;86996;-69
2022/01/27 14:45:34;;;;;;;67.90;39.40;;;;;;;;;;5059715;27;87141;-70
2022/01/27 14:48:17;;;;;;;60.10;37.63;;;;;;;;;;5058667;27;89163;-69
2022/01/27 14:50:44;;;;;;;59.40;37.45;;;;;;;;;;5059557;27;88331;-69
2022/01/27 14:53:11;;;;;;;50.80;31.05;;;;;;;;;;5061013;27;88033;-69
2022/01/27 14:55:38;;;;;;;55.17;31.13;;;;;;;;;;5059590;27;86880;-69
2022/01/27 14:58:05;;;;;;;52.17;30.70;;;;;;;;;;5058273;27;89279;-69
2022/01/27 15:00:32;;;;;;;56.65;33.10;;;;;;;;;;5060493;27;89461;-69
2022/01/27 15:02:59;;;;;;;59.75;34.85;;;;;;;;;;5059574;27;88240;-69
2022/01/27 15:05:28;;;;;;;60.70;32.75;;;;;;;;;;5022878;28;87460;-69
2022/01/27 15:07:55;;;;;;;59.10;33.50;;;;;;;;;;5055337;27;88965;-69
2022/01/27 15:10:22;;;;;;;69.78;41.63;;;;;;;;;;5042923;27;89172;-69
2022/01/27 15:12:53;;;;;;;61.60;35.53;;;;;;;;;;5060363;27;86896;-69
2022/01/27 15:20:58;;;;;;;55.50;32.90;;;;;;;;;;5059142;27;87542;-69
2022/01/27 15:23:27;;;;;;;85.40;50.78;;;;;;;;;;5058795;27;87038;-69
2022/01/27 15:25:55;;;;;;;59.38;33.72;;;;;;;;;;5059036;27;87568;-69
2022/01/27 15:28:23;;;;;;;51.47;32.22;;;;;;;;;;5058613;27;89712;-69
2022/01/27 15:30:51;;;;;;;56.88;33.10;;;;;;;;;;5060582;27;88503;-69
2022/01/27 15:33:18;;;;;;;65.97;35.00;;;;;;;;;;5060773;27;87161;-69
2022/01/27 15:35:45;;;;;;;58.60;32.45;;;;;;;;;;5058997;27;87002;-69
2022/01/27 15:38:13;;;;;;;76.18;46.92;;;;;;;;;;5058367;27;88223;-69
2022/01/27 15:40:41;;;;;;;61.53;36.22;;;;;;;;;;5059907;27;88441;-69
2022/01/27 15:43:09;;;;;;;75.95;39.28;;;;;;;;;;5060696;27;86881;-69
2022/01/27 15:45:38;;;;;;;69.15;35.53;;;;;;;;;;5058720;27;86571;-69
2022/01/27 15:48:05;;;;;;;68.82;35.78;;;;;;;;;;5054573;27;89657;-69